sensor_id;sensor_type;location;lat;lon;timestamp;pressure;altitude;pressure_sealevel;temperature;humidity
7918;BME280;4004;42.624;23.386;2023-07-24T00:00:28;94412.75;;;20.25;71.36
7918;BME280;4004;42.624;23.386;2023-07-24T00:02:55;94407.25;;;20.28;70.86
7918;BME280;4004;42.624;23.386;2023-07-24T00:05:22;94408.28;;;20.38;70.67
7918;BME280;4004;42.624;23.386;2023-07-24T00:07:50;94411.78;;;20.39;70.66
7918;BME280;4004;42.624;23.386;2023-07-24T00:10:17;94409.00;;;20.42;70.19
7918;BME280;4004;42.624;23.386;2023-07-24T00:12:44;94414.06;;;20.44;69.92
7918;BME280;4004;42.624;23.386;2023-07-24T00:15:10;94400.41;;;20.44;69.84
7918;BME280;4004;42.624;23.386;2023-07-24T00:17:37;94391.47;;;20.40;69.96
7918;BME280;4004;42.624;23.386;2023-07-24T00:20:05;94402.25;;;20.50;69.71
7918;BME280;4004;42.624;23.386;2023-07-24T00:22:32;94400.75;;;20.46;69.74
7918;BME280;4004;42.624;23.386;2023-07-24T00:25:00;94395.44;;;20.35;69.90
7918;BME280;4004;42.624;23.386;2023-07-24T00:27:27;94395.06;;;20.37;69.92
7918;BME280;4004;42.624;23.386;2023-07-24T00:29:54;94396.28;;;20.32;69.76
7918;BME280;4004;42.624;23.386;2023-07-24T00:32:20;94408.63;;;20.40;69.65
7918;BME280;4004;42.624;23.386;2023-07-24T00:34:47;94411.72;;;20.42;69.29
7918;BME280;4004;42.624;23.386;2023-07-24T00:37:14;94404.63;;;20.48;68.30
7918;BME280;4004;42.624;23.386;2023-07-24T00:39:41;94402.78;;;20.42;68.11
7918;BME280;4004;42.624;23.386;2023-07-24T00:42:09;94405.09;;;20.43;68.53
7918;BME280;4004;42.624;23.386;2023-07-24T00:44:36;94396.94;;;20.40;69.18
7918;BME280;4004;42.624;23.386;2023-07-24T00:47:03;94402.53;;;20.29;71.22
7918;BME280;4004;42.624;23.386;2023-07-24T00:49:30;94398.88;;;20.12;75.31
7918;BME280;4004;42.624;23.386;2023-07-24T00:51:57;94399.50;;;19.93;79.68
7918;BME280;4004;42.624;23.386;2023-07-24T00:54:24;94401.50;;;19.88;80.76
7918;BME280;4004;42.624;23.386;2023-07-24T00:56:51;94401.22;;;19.79;81.97
7918;BME280;4004;42.624;23.386;2023-07-24T00:59:19;94397.00;;;19.75;83.70
7918;BME280;4004;42.624;23.386;2023-07-24T01:01:46;94387.31;;;19.66;84.65
7918;BME280;4004;42.624;23.386;2023-07-24T01:04:14;94382.31;;;19.61;85.01
7918;BME280;4004;42.624;23.386;2023-07-24T01:06:41;94387.34;;;19.63;85.17
7918;BME280;4004;42.624;23.386;2023-07-24T01:09:07;94391.63;;;19.64;84.96
7918;BME280;4004;42.624;23.386;2023-07-24T01:11:38;94386.09;;;19.71;83.98
7918;BME280;4004;42.624;23.386;2023-07-24T01:14:10;94380.53;;;19.82;82.98
7918;BME280;4004;42.624;23.386;2023-07-24T01:16:42;94381.63;;;19.88;81.63
7918;BME280;4004;42.624;23.386;2023-07-24T01:19:12;94383.50;;;19.95;80.70
7918;BME280;4004;42.624;23.386;2023-07-24T01:21:46;94380.41;;;19.93;79.37
7918;BME280;4004;42.624;23.386;2023-07-24T01:24:24;94379.63;;;19.92;77.98
7918;BME280;4004;42.624;23.386;2023-07-24T01:26:57;94382.72;;;19.94;77.49
7918;BME280;4004;42.624;23.386;2023-07-24T01:29:24;94387.75;;;19.96;76.75
7918;BME280;4004;42.624;23.386;2023-07-24T01:31:51;94388.50;;;20.00;74.70
7918;BME280;4004;42.624;23.386;2023-07-24T01:34:18;94378.41;;;19.97;74.45
7918;BME280;4004;42.624;23.386;2023-07-24T01:36:45;94383.38;;;19.71;74.58
7918;BME280;4004;42.624;23.386;2023-07-24T01:39:12;94381.38;;;19.75;74.83
7918;BME280;4004;42.624;23.386;2023-07-24T01:41:39;94383.03;;;19.65;76.68
7918;BME280;4004;42.624;23.386;2023-07-24T01:44:08;94379.22;;;19.56;78.55
7918;BME280;4004;42.624;23.386;2023-07-24T01:46:34;94380.91;;;19.46;80.95
7918;BME280;4004;42.624;23.386;2023-07-24T01:49:01;94378.00;;;19.26;82.87
7918;BME280;4004;42.624;23.386;2023-07-24T01:51:28;94381.63;;;19.12;86.45
7918;BME280;4004;42.624;23.386;2023-07-24T01:53:55;94396.50;;;19.04;87.42
7918;BME280;4004;42.624;23.386;2023-07-24T01:56:21;94408.53;;;19.07;87.58
7918;BME280;4004;42.624;23.386;2023-07-24T01:58:48;94399.88;;;19.15;87.72
7918;BME280;4004;42.624;23.386;2023-07-24T02:01:16;94396.34;;;19.18;87.09
7918;BME280;4004;42.624;23.386;2023-07-24T02:03:43;94397.91;;;19.19;86.59
7918;BME280;4004;42.624;23.386;2023-07-24T02:06:09;94393.22;;;19.20;86.63
7918;BME280;4004;42.624;23.386;2023-07-24T02:08:36;94385.91;;;19.13;86.24
7918;BME280;4004;42.624;23.386;2023-07-24T02:11:03;94389.00;;;19.12;85.98
7918;BME280;4004;42.624;23.386;2023-07-24T02:13:30;94392.19;;;19.03;86.94
7918;BME280;4004;42.624;23.386;2023-07-24T02:15:56;94380.13;;;19.04;86.66
7918;BME280;4004;42.624;23.386;2023-07-24T02:18:24;94389.84;;;19.05;85.68
7918;BME280;4004;42.624;23.386;2023-07-24T02:20:51;94381.34;;;18.99;85.35
7918;BME280;4004;42.624;23.386;2023-07-24T02:23:18;94379.84;;;18.95;81.86
7918;BME280;4004;42.624;23.386;2023-07-24T02:25:45;94372.56;;;18.81;80.88
7918;BME280;4004;42.624;23.386;2023-07-24T02:28:11;94378.03;;;18.77;80.99
7918;BME280;4004;42.624;23.386;2023-07-24T02:30:38;94378.47;;;18.65;81.72
7918;BME280;4004;42.624;23.386;2023-07-24T02:33:05;94375.41;;;18.59;82.17
7918;BME280;4004;42.624;23.386;2023-07-24T02:35:39;94369.28;;;18.44;84.04
7918;BME280;4004;42.624;23.386;2023-07-24T02:38:06;94370.81;;;18.49;84.84
7918;BME280;4004;42.624;23.386;2023-07-24T02:40:33;94373.53;;;18.49;85.33
7918;BME280;4004;42.624;23.386;2023-07-24T02:43:00;94373.50;;;18.53;84.98
7918;BME280;4004;42.624;23.386;2023-07-24T02:45:26;94376.19;;;18.56;84.42
7918;BME280;4004;42.624;23.386;2023-07-24T02:47:53;94373.84;;;18.62;82.58
7918;BME280;4004;42.624;23.386;2023-07-24T02:50:20;94380.03;;;18.62;82.25
7918;BME280;4004;42.624;23.386;2023-07-24T02:52:48;94380.75;;;18.77;80.82
7918;BME280;4004;42.624;23.386;2023-07-24T02:55:14;94383.09;;;18.72;80.88
7918;BME280;4004;42.624;23.386;2023-07-24T02:57:41;94376.13;;;18.67;81.38
7918;BME280;4004;42.624;23.386;2023-07-24T03:00:09;94369.91;;;18.67;80.16
7918;BME280;4004;42.624;23.386;2023-07-24T03:02:37;94370.63;;;18.74;81.33
7918;BME280;4004;42.624;23.386;2023-07-24T03:05:05;94376.94;;;18.60;84.44
7918;BME280;4004;42.624;23.386;2023-07-24T03:07:31;94365.34;;;18.53;87.01
7918;BME280;4004;42.624;23.386;2023-07-24T03:10:00;94372.31;;;18.54;86.16
7918;BME280;4004;42.624;23.386;2023-07-24T03:12:26;94365.69;;;18.58;86.26
7918;BME280;4004;42.624;23.386;2023-07-24T03:14:53;94368.88;;;18.46;86.49
7918;BME280;4004;42.624;23.386;2023-07-24T03:17:20;94362.69;;;18.42;86.83
7918;BME280;4004;42.624;23.386;2023-07-24T03:19:48;94363.84;;;18.44;87.33
7918;BME280;4004;42.624;23.386;2023-07-24T03:22:15;94358.41;;;18.44;86.93
7918;BME280;4004;42.624;23.386;2023-07-24T03:24:42;94368.50;;;18.44;87.10
7918;BME280;4004;42.624;23.386;2023-07-24T03:27:10;94369.28;;;18.48;87.50
7918;BME280;4004;42.624;23.386;2023-07-24T03:29:37;94369.66;;;18.50;88.35
7918;BME280;4004;42.624;23.386;2023-07-24T03:32:05;94377.25;;;18.73;86.90
7918;BME280;4004;42.624;23.386;2023-07-24T03:34:31;94374.84;;;18.86;86.50
7918;BME280;4004;42.624;23.386;2023-07-24T03:36:58;94369.72;;;18.95;85.87
7918;BME280;4004;42.624;23.386;2023-07-24T03:39:25;94368.03;;;19.09;85.40
7918;BME280;4004;42.624;23.386;2023-07-24T03:41:52;94382.69;;;19.25;84.75
7918;BME280;4004;42.624;23.386;2023-07-24T03:44:20;94394.16;;;19.44;83.35
7918;BME280;4004;42.624;23.386;2023-07-24T03:46:46;94386.03;;;19.78;80.76
7918;BME280;4004;42.624;23.386;2023-07-24T03:49:13;94387.88;;;20.19;78.62
7918;BME280;4004;42.624;23.386;2023-07-24T03:51:40;94398.34;;;20.52;75.49
7918;BME280;4004;42.624;23.386;2023-07-24T03:54:06;94395.22;;;20.80;73.79
7918;BME280;4004;42.624;23.386;2023-07-24T03:56:33;94394.50;;;21.00;71.88
7918;BME280;4004;42.624;23.386;2023-07-24T03:59:00;94393.72;;;20.76;72.19
7918;BME280;4004;42.624;23.386;2023-07-24T04:01:28;94395.13;;;20.60;72.92
7918;BME280;4004;42.624;23.386;2023-07-24T04:03:55;94390.22;;;20.17;74.85
7918;BME280;4004;42.624;23.386;2023-07-24T04:06:21;94400.09;;;20.07;76.46
7918;BME280;4004;42.624;23.386;2023-07-24T04:08:48;94395.94;;;19.96;77.72
7918;BME280;4004;42.624;23.386;2023-07-24T04:11:15;94395.81;;;20.37;75.54
7918;BME280;4004;42.624;23.386;2023-07-24T04:13:42;94400.28;;;21.29;71.88
7918;BME280;4004;42.624;23.386;2023-07-24T04:16:08;94405.44;;;22.30;65.40
7918;BME280;4004;42.624;23.386;2023-07-24T04:18:36;94404.44;;;23.10;61.82
7918;BME280;4004;42.624;23.386;2023-07-24T04:21:03;94406.16;;;23.20;59.76
7918;BME280;4004;42.624;23.386;2023-07-24T04:23:30;94411.25;;;22.69;61.93
7918;BME280;4004;42.624;23.386;2023-07-24T04:25:56;94410.44;;;22.52;62.67
7918;BME280;4004;42.624;23.386;2023-07-24T04:28:23;94406.50;;;23.06;61.13
7918;BME280;4004;42.624;23.386;2023-07-24T04:30:50;94405.22;;;24.02;58.54
7918;BME280;4004;42.624;23.386;2023-07-24T04:33:16;94405.88;;;25.25;52.96
7918;BME280;4004;42.624;23.386;2023-07-24T04:35:47;94413.66;;;26.09;49.61
7918;BME280;4004;42.624;23.386;2023-07-24T04:38:14;94413.13;;;26.23;48.01
7918;BME280;4004;42.624;23.386;2023-07-24T04:40:43;94404.16;;;25.88;47.82
7918;BME280;4004;42.624;23.386;2023-07-24T04:43:10;94398.53;;;26.13;46.51
7918;BME280;4004;42.624;23.386;2023-07-24T04:45:37;94404.09;;;26.44;45.81
7918;BME280;4004;42.624;23.386;2023-07-24T04:48:04;94416.84;;;26.29;46.74
7918;BME280;4004;42.624;23.386;2023-07-24T04:50:31;94413.78;;;26.27;47.91
7918;BME280;4004;42.624;23.386;2023-07-24T04:53:00;94415.78;;;26.04;49.17
7918;BME280;4004;42.624;23.386;2023-07-24T04:55:26;94422.81;;;26.81;47.76
7918;BME280;4004;42.624;23.386;2023-07-24T04:57:53;94414.59;;;27.40;46.17
7918;BME280;4004;42.624;23.386;2023-07-24T05:00:20;94418.00;;;27.81;44.46
7918;BME280;4004;42.624;23.386;2023-07-24T05:02:47;94413.84;;;27.67;44.86
7918;BME280;4004;42.624;23.386;2023-07-24T05:05:14;94422.31;;;27.73;43.99
7918;BME280;4004;42.624;23.386;2023-07-24T05:07:40;94422.16;;;27.95;44.01
7918;BME280;4004;42.624;23.386;2023-07-24T05:10:09;94424.31;;;28.09;43.72
7918;BME280;4004;42.624;23.386;2023-07-24T05:12:35;94424.88;;;28.68;43.05
7918;BME280;4004;42.624;23.386;2023-07-24T05:15:03;94419.47;;;29.07;42.01
7918;BME280;4004;42.624;23.386;2023-07-24T05:17:29;94431.00;;;29.72;40.53
7918;BME280;4004;42.624;23.386;2023-07-24T05:19:56;94425.84;;;29.56;40.45
7918;BME280;4004;42.624;23.386;2023-07-24T05:22:23;94425.41;;;29.82;40.14
7918;BME280;4004;42.624;23.386;2023-07-24T05:24:50;94425.84;;;30.19;39.73
7918;BME280;4004;42.624;23.386;2023-07-24T05:27:18;94431.25;;;30.52;39.05
7918;BME280;4004;42.624;23.386;2023-07-24T05:29:45;94434.66;;;31.22;37.95
7918;BME280;4004;42.624;23.386;2023-07-24T05:32:12;94433.50;;;31.28;37.59
7918;BME280;4004;42.624;23.386;2023-07-24T05:34:38;94432.53;;;31.67;36.80
7918;BME280;4004;42.624;23.386;2023-07-24T05:37:05;94427.09;;;32.19;36.15
7918;BME280;4004;42.624;23.386;2023-07-24T05:39:32;94430.31;;;32.90;34.62
7918;BME280;4004;42.624;23.386;2023-07-24T05:41:59;94430.31;;;32.90;34.23
7918;BME280;4004;42.624;23.386;2023-07-24T05:44:27;94429.47;;;33.48;33.57
7918;BME280;4004;42.624;23.386;2023-07-24T05:46:53;94427.38;;;33.80;33.09
7918;BME280;4004;42.624;23.386;2023-07-24T05:49:20;94425.69;;;33.51;33.15
7918;BME280;4004;42.624;23.386;2023-07-24T05:51:47;94420.97;;;33.25;33.57
7918;BME280;4004;42.624;23.386;2023-07-24T05:54:14;94422.50;;;32.94;34.11
7918;BME280;4004;42.624;23.386;2023-07-24T05:56:40;94405.31;;;33.33;34.21
7918;BME280;4004;42.624;23.386;2023-07-24T05:59:07;94414.13;;;32.62;34.87
7918;BME280;4004;42.624;23.386;2023-07-24T06:01:35;94407.34;;;33.01;34.99
7918;BME280;4004;42.624;23.386;2023-07-24T06:04:02;94407.63;;;33.40;34.43
7918;BME280;4004;42.624;23.386;2023-07-24T06:06:29;94403.41;;;33.56;34.29
7918;BME280;4004;42.624;23.386;2023-07-24T06:08:56;94393.59;;;33.67;34.49
7918;BME280;4004;42.624;23.386;2023-07-24T06:11:22;94405.50;;;33.67;34.46
7918;BME280;4004;42.624;23.386;2023-07-24T06:13:49;94401.56;;;33.42;35.09
7918;BME280;4004;42.624;23.386;2023-07-24T06:16:16;94395.88;;;33.62;34.60
7918;BME280;4004;42.624;23.386;2023-07-24T06:18:44;94400.84;;;34.07;33.69
7918;BME280;4004;42.624;23.386;2023-07-24T06:21:11;94403.22;;;34.42;33.49
7918;BME280;4004;42.624;23.386;2023-07-24T06:23:37;94402.88;;;34.06;33.94
7918;BME280;4004;42.624;23.386;2023-07-24T06:26:04;94400.03;;;33.90;34.24
7918;BME280;4004;42.624;23.386;2023-07-24T06:28:31;94402.47;;;34.36;33.65
7918;BME280;4004;42.624;23.386;2023-07-24T06:30:58;94404.94;;;34.17;33.56
7918;BME280;4004;42.624;23.386;2023-07-24T06:33:25;94401.16;;;34.26;33.65
7918;BME280;4004;42.624;23.386;2023-07-24T06:35:53;94409.13;;;34.78;33.09
7918;BME280;4004;42.624;23.386;2023-07-24T06:38:20;94411.16;;;34.72;33.07
7918;BME280;4004;42.624;23.386;2023-07-24T06:40:47;94402.94;;;34.18;33.71
7918;BME280;4004;42.624;23.386;2023-07-24T06:43:14;94406.09;;;33.82;34.49
7918;BME280;4004;42.624;23.386;2023-07-24T06:45:41;94395.03;;;33.56;34.73
7918;BME280;4004;42.624;23.386;2023-07-24T06:48:08;94397.28;;;33.47;34.80
7918;BME280;4004;42.624;23.386;2023-07-24T06:50:34;94402.97;;;33.20;35.54
7918;BME280;4004;42.624;23.386;2023-07-24T06:53:03;94399.25;;;33.03;35.68
7918;BME280;4004;42.624;23.386;2023-07-24T06:55:29;94401.56;;;33.04;35.50
7918;BME280;4004;42.624;23.386;2023-07-24T06:57:56;94404.19;;;33.14;35.72
7918;BME280;4004;42.624;23.386;2023-07-24T07:00:23;94408.06;;;32.96;35.97
7918;BME280;4004;42.624;23.386;2023-07-24T07:02:50;94397.25;;;32.46;36.97
7918;BME280;4004;42.624;23.386;2023-07-24T07:05:16;94403.88;;;32.22;38.09
7918;BME280;4004;42.624;23.386;2023-07-24T07:07:43;94401.50;;;32.15;38.05
7918;BME280;4004;42.624;23.386;2023-07-24T07:10:11;94398.56;;;32.76;37.11
7918;BME280;4004;42.624;23.386;2023-07-24T07:12:38;94403.41;;;33.56;35.75
7918;BME280;4004;42.624;23.386;2023-07-24T07:15:05;94411.78;;;34.16;34.81
7918;BME280;4004;42.624;23.386;2023-07-24T07:17:32;94405.84;;;34.69;33.98
7918;BME280;4004;42.624;23.386;2023-07-24T07:19:59;94416.75;;;34.89;33.09
7918;BME280;4004;42.624;23.386;2023-07-24T07:22:27;94402.75;;;35.12;33.09
7918;BME280;4004;42.624;23.386;2023-07-24T07:24:54;94400.47;;;35.04;32.97
7918;BME280;4004;42.624;23.386;2023-07-24T07:27:22;94403.50;;;34.56;33.45
7918;BME280;4004;42.624;23.386;2023-07-24T07:29:49;94397.00;;;33.99;34.39
7918;BME280;4004;42.624;23.386;2023-07-24T07:32:15;94394.88;;;33.71;34.66
7918;BME280;4004;42.624;23.386;2023-07-24T07:34:42;94393.09;;;33.68;34.80
7918;BME280;4004;42.624;23.386;2023-07-24T07:37:09;94397.16;;;33.67;35.18
7918;BME280;4004;42.624;23.386;2023-07-24T07:39:36;94400.91;;;33.15;35.30
7918;BME280;4004;42.624;23.386;2023-07-24T07:42:03;94392.09;;;33.28;35.18
7918;BME280;4004;42.624;23.386;2023-07-24T07:44:31;94394.34;;;33.67;34.75
7918;BME280;4004;42.624;23.386;2023-07-24T07:46:58;94396.34;;;33.61;34.45
7918;BME280;4004;42.624;23.386;2023-07-24T07:49:25;94390.09;;;33.34;34.92
7918;BME280;4004;42.624;23.386;2023-07-24T07:51:51;94387.50;;;33.62;34.48
7918;BME280;4004;42.624;23.386;2023-07-24T07:54:18;94386.66;;;33.51;34.41
7918;BME280;4004;42.624;23.386;2023-07-24T07:56:45;94389.47;;;33.56;34.58
7918;BME280;4004;42.624;23.386;2023-07-24T07:59:11;94397.22;;;32.98;35.18
7918;BME280;4004;42.624;23.386;2023-07-24T08:01:40;94395.00;;;32.76;35.14
7918;BME280;4004;42.624;23.386;2023-07-24T08:04:07;94391.81;;;32.57;35.46
7918;BME280;4004;42.624;23.386;2023-07-24T08:06:34;94387.59;;;32.41;35.74
7918;BME280;4004;42.624;23.386;2023-07-24T08:09:00;94387.41;;;32.76;35.50
7918;BME280;4004;42.624;23.386;2023-07-24T08:11:27;94389.44;;;32.76;35.58
7918;BME280;4004;42.624;23.386;2023-07-24T08:13:54;94395.78;;;32.50;37.15
7918;BME280;4004;42.624;23.386;2023-07-24T08:16:21;94384.81;;;32.15;36.90
7918;BME280;4004;42.624;23.386;2023-07-24T08:18:50;94382.41;;;32.28;36.51
7918;BME280;4004;42.624;23.386;2023-07-24T08:21:16;94379.78;;;32.19;36.68
7918;BME280;4004;42.624;23.386;2023-07-24T08:23:43;94369.97;;;32.24;36.74
7918;BME280;4004;42.624;23.386;2023-07-24T08:26:10;94377.63;;;32.03;35.74
7918;BME280;4004;42.624;23.386;2023-07-24T08:28:37;94377.69;;;31.88;36.13
7918;BME280;4004;42.624;23.386;2023-07-24T08:31:07;94366.00;;;32.30;35.01
7918;BME280;4004;42.624;23.386;2023-07-24T08:33:34;94369.94;;;32.44;35.56
7918;BME280;4004;42.624;23.386;2023-07-24T08:36:04;94366.28;;;32.06;35.65
7918;BME280;4004;42.624;23.386;2023-07-24T08:38:31;94356.56;;;31.75;35.85
7918;BME280;4004;42.624;23.386;2023-07-24T08:41:05;94359.97;;;31.65;35.25
7918;BME280;4004;42.624;23.386;2023-07-24T08:43:34;94351.94;;;31.67;35.39
7918;BME280;4004;42.624;23.386;2023-07-24T08:46:02;94355.75;;;31.69;35.79
7918;BME280;4004;42.624;23.386;2023-07-24T08:48:31;94345.50;;;31.81;35.93
7918;BME280;4004;42.624;23.386;2023-07-24T08:51:02;94346.97;;;31.97;35.80
7918;BME280;4004;42.624;23.386;2023-07-24T08:53:30;94357.66;;;31.84;35.97
7918;BME280;4004;42.624;23.386;2023-07-24T08:55:58;94348.09;;;31.44;36.79
7918;BME280;4004;42.624;23.386;2023-07-24T08:58:25;94340.31;;;31.27;37.10
7918;BME280;4004;42.624;23.386;2023-07-24T09:00:52;94352.97;;;31.49;36.34
7918;BME280;4004;42.624;23.386;2023-07-24T09:03:19;94346.88;;;31.30;36.33
7918;BME280;4004;42.624;23.386;2023-07-24T09:05:47;94341.75;;;31.23;36.11
7918;BME280;4004;42.624;23.386;2023-07-24T09:08:15;94346.00;;;31.18;35.54
7918;BME280;4004;42.624;23.386;2023-07-24T09:10:42;94347.31;;;31.23;35.74
7918;BME280;4004;42.624;23.386;2023-07-24T09:13:11;94345.22;;;31.17;35.75
7918;BME280;4004;42.624;23.386;2023-07-24T09:15:41;94341.94;;;30.84;36.03
7918;BME280;4004;42.624;23.386;2023-07-24T09:18:08;94343.38;;;30.94;35.82
7918;BME280;4004;42.624;23.386;2023-07-24T09:20:39;94337.94;;;31.20;35.96
7918;BME280;4004;42.624;23.386;2023-07-24T09:23:07;94333.56;;;31.13;36.58
7918;BME280;4004;42.624;23.386;2023-07-24T09:25:36;94336.53;;;31.10;37.10
7918;BME280;4004;42.624;23.386;2023-07-24T09:28:09;94325.56;;;31.01;36.15
7918;BME280;4004;42.624;23.386;2023-07-24T09:30:37;94323.81;;;31.03;36.13
7918;BME280;4004;42.624;23.386;2023-07-24T09:33:03;94323.06;;;31.03;36.07
7918;BME280;4004;42.624;23.386;2023-07-24T09:35:30;94317.59;;;31.29;36.63
7918;BME280;4004;42.624;23.386;2023-07-24T09:38:05;94315.31;;;31.48;35.71
7918;BME280;4004;42.624;23.386;2023-07-24T09:40:41;94312.63;;;31.53;35.48
7918;BME280;4004;42.624;23.386;2023-07-24T09:43:16;94315.56;;;31.09;35.97
7918;BME280;4004;42.624;23.386;2023-07-24T09:45:43;94305.50;;;30.76;36.82
7918;BME280;4004;42.624;23.386;2023-07-24T09:48:12;94299.66;;;30.74;37.12
7918;BME280;4004;42.624;23.386;2023-07-24T09:50:40;94290.50;;;30.68;37.67
7918;BME280;4004;42.624;23.386;2023-07-24T09:53:12;94274.22;;;30.75;37.82
7918;BME280;4004;42.624;23.386;2023-07-24T09:55:47;94285.50;;;30.87;37.01
7918;BME280;4004;42.624;23.386;2023-07-24T09:58:16;94283.66;;;30.84;36.87
7918;BME280;4004;42.624;23.386;2023-07-24T10:00:45;94277.13;;;31.02;36.92
7918;BME280;4004;42.624;23.386;2023-07-24T10:03:13;94277.13;;;31.02;36.80
7918;BME280;4004;42.624;23.386;2023-07-24T10:05:40;94267.53;;;31.03;36.44
7918;BME280;4004;42.624;23.386;2023-07-24T10:08:08;94274.06;;;31.20;37.06
7918;BME280;4004;42.624;23.386;2023-07-24T10:10:35;94269.66;;;31.34;36.55
7918;BME280;4004;42.624;23.386;2023-07-24T10:13:04;94272.88;;;31.47;35.84
7918;BME280;4004;42.624;23.386;2023-07-24T10:15:31;94269.47;;;31.58;34.94
7918;BME280;4004;42.624;23.386;2023-07-24T10:18:02;94263.00;;;31.67;34.72
7918;BME280;4004;42.624;23.386;2023-07-24T10:20:35;94265.06;;;31.72;34.48
7918;BME280;4004;42.624;23.386;2023-07-24T10:23:04;94262.88;;;31.81;35.00
7918;BME280;4004;42.624;23.386;2023-07-24T10:25:32;94258.13;;;31.88;34.45
7918;BME280;4004;42.624;23.386;2023-07-24T10:28:04;94254.66;;;31.93;34.47
7918;BME280;4004;42.624;23.386;2023-07-24T10:30:33;94244.78;;;31.92;34.76
7918;BME280;4004;42.624;23.386;2023-07-24T10:33:05;94249.22;;;32.04;34.75
7918;BME280;4004;42.624;23.386;2023-07-24T10:35:40;94244.63;;;32.01;34.85
7918;BME280;4004;42.624;23.386;2023-07-24T10:38:07;94239.38;;;31.83;35.48
7918;BME280;4004;42.624;23.386;2023-07-24T10:40:34;94234.84;;;31.85;35.56
7918;BME280;4004;42.624;23.386;2023-07-24T10:43:05;94228.06;;;31.86;35.40
7918;BME280;4004;42.624;23.386;2023-07-24T10:45:46;94227.72;;;31.78;35.12
7918;BME280;4004;42.624;23.386;2023-07-24T10:48:13;94231.97;;;31.74;34.83
7918;BME280;4004;42.624;23.386;2023-07-24T10:50:41;94233.72;;;31.71;35.22
7918;BME280;4004;42.624;23.386;2023-07-24T10:53:08;94234.66;;;31.89;34.62
7918;BME280;4004;42.624;23.386;2023-07-24T10:55:36;94233.31;;;32.10;34.55
7918;BME280;4004;42.624;23.386;2023-07-24T10:58:02;94227.66;;;31.99;34.36
7918;BME280;4004;42.624;23.386;2023-07-24T11:00:31;94212.16;;;31.92;34.51
7918;BME280;4004;42.624;23.386;2023-07-24T11:02:57;94211.94;;;31.96;34.91
7918;BME280;4004;42.624;23.386;2023-07-24T11:05:24;94207.00;;;32.06;34.21
7918;BME280;4004;42.624;23.386;2023-07-24T11:07:51;94211.88;;;32.16;33.86
7918;BME280;4004;42.624;23.386;2023-07-24T11:10:19;94205.59;;;32.21;33.67
7918;BME280;4004;42.624;23.386;2023-07-24T11:12:46;94204.13;;;32.26;33.76
7918;BME280;4004;42.624;23.386;2023-07-24T11:15:14;94200.34;;;32.29;33.96
7918;BME280;4004;42.624;23.386;2023-07-24T11:17:42;94200.63;;;32.37;33.94
7918;BME280;4004;42.624;23.386;2023-07-24T11:20:11;94184.00;;;32.48;32.86
7918;BME280;4004;42.624;23.386;2023-07-24T11:22:39;94187.41;;;32.58;32.25
7918;BME280;4004;42.624;23.386;2023-07-24T11:25:07;94184.44;;;32.73;32.33
7918;BME280;4004;42.624;23.386;2023-07-24T11:27:38;94182.22;;;32.88;32.72
7918;BME280;4004;42.624;23.386;2023-07-24T11:30:07;94187.28;;;32.90;32.73
7918;BME280;4004;42.624;23.386;2023-07-24T11:32:34;94188.06;;;33.01;32.23
7918;BME280;4004;42.624;23.386;2023-07-24T11:35:03;94179.78;;;33.07;31.59
7918;BME280;4004;42.624;23.386;2023-07-24T11:37:30;94181.31;;;33.14;31.40
7918;BME280;4004;42.624;23.386;2023-07-24T11:39:58;94176.31;;;33.29;31.64
7918;BME280;4004;42.624;23.386;2023-07-24T11:42:27;94179.09;;;33.46;31.51
7918;BME280;4004;42.624;23.386;2023-07-24T11:44:54;94167.00;;;33.60;31.64
7918;BME280;4004;42.624;23.386;2023-07-24T11:47:21;94163.97;;;33.58;31.02
7918;BME280;4004;42.624;23.386;2023-07-24T11:49:58;94173.31;;;33.44;31.10
7918;BME280;4004;42.624;23.386;2023-07-24T11:52:36;94167.47;;;33.42;30.72
7918;BME280;4004;42.624;23.386;2023-07-24T11:55:04;94162.94;;;33.56;29.97
7918;BME280;4004;42.624;23.386;2023-07-24T11:57:30;94169.56;;;33.70;30.30
7918;BME280;4004;42.624;23.386;2023-07-24T11:59:57;94174.38;;;33.69;31.09
7918;BME280;4004;42.624;23.386;2023-07-24T12:02:26;94177.94;;;33.64;30.85
7918;BME280;4004;42.624;23.386;2023-07-24T12:04:55;94154.59;;;33.61;30.92
7918;BME280;4004;42.624;23.386;2023-07-24T12:07:23;94170.25;;;33.42;31.01
7918;BME280;4004;42.624;23.386;2023-07-24T12:09:52;94163.16;;;33.35;31.52
7918;BME280;4004;42.624;23.386;2023-07-24T12:12:19;94163.38;;;33.32;31.63
7918;BME280;4004;42.624;23.386;2023-07-24T12:14:45;94165.16;;;33.35;31.82
7918;BME280;4004;42.624;23.386;2023-07-24T12:17:17;94149.97;;;33.36;31.83
7918;BME280;4004;42.624;23.386;2023-07-24T12:19:45;94154.31;;;33.54;30.61
7918;BME280;4004;42.624;23.386;2023-07-24T12:22:12;94156.56;;;33.50;30.90
7918;BME280;4004;42.624;23.386;2023-07-24T12:24:39;94153.28;;;33.45;29.99
7918;BME280;4004;42.624;23.386;2023-07-24T12:27:07;94144.66;;;33.38;29.67
7918;BME280;4004;42.624;23.386;2023-07-24T12:29:34;94152.75;;;33.53;30.13
7918;BME280;4004;42.624;23.386;2023-07-24T12:32:01;94146.47;;;33.58;30.52
7918;BME280;4004;42.624;23.386;2023-07-24T12:34:28;94149.28;;;33.69;30.55
7918;BME280;4004;42.624;23.386;2023-07-24T12:36:54;94149.25;;;33.63;31.69
7918;BME280;4004;42.624;23.386;2023-07-24T12:39:21;94141.91;;;33.66;32.96
7918;BME280;4004;42.624;23.386;2023-07-24T12:41:48;94136.84;;;33.70;32.12
7918;BME280;4004;42.624;23.386;2023-07-24T12:44:16;94136.09;;;33.70;31.01
7918;BME280;4004;42.624;23.386;2023-07-24T12:46:43;94137.34;;;33.63;29.97
7918;BME280;4004;42.624;23.386;2023-07-24T12:49:10;94133.81;;;33.62;30.72
7918;BME280;4004;42.624;23.386;2023-07-24T12:51:36;94135.06;;;33.56;31.14
7918;BME280;4004;42.624;23.386;2023-07-24T12:54:03;94128.19;;;33.57;30.42
7918;BME280;4004;42.624;23.386;2023-07-24T12:56:30;94133.00;;;33.56;30.33
7918;BME280;4004;42.624;23.386;2023-07-24T12:58:56;94120.63;;;33.63;30.79
7918;BME280;4004;42.624;23.386;2023-07-24T13:01:25;94123.69;;;33.65;31.02
7918;BME280;4004;42.624;23.386;2023-07-24T13:03:54;94123.91;;;33.61;31.25
7918;BME280;4004;42.624;23.386;2023-07-24T13:06:20;94131.28;;;33.70;31.02
7918;BME280;4004;42.624;23.386;2023-07-24T13:08:47;94129.75;;;33.69;31.01
7918;BME280;4004;42.624;23.386;2023-07-24T13:11:14;94113.03;;;33.80;30.26